Time;durP1;ratioP1;P1;durP2;ratioP2;P2;SDS_P1;SDS_P2;PMS_P1;PMS_P2;Temp;Humidity;BMP_temperature;BMP_pressure;BME280_temperature;BME280_humidity;BME280_pressure;Samples;Min_cycle;Max_cycle;Signal;HPM_P1;HPM_P2
2022/04/13 00:02:01;;;;;;;7.18;3.97;;;7.90;99.90;;;;;;5042992;28;20184;-74
2022/04/13 00:04:27;;;;;;;4.93;3.65;;;7.80;99.90;;;;;;5043685;28;20207;-74
2022/04/13 00:06:53;;;;;;;4.90;3.25;;;7.80;99.90;;;;;;5047911;28;20267;-73
2022/04/13 00:09:19;;;;;;;5.82;3.72;;;7.80;99.90;;;;;;5050183;28;20207;-74
2022/04/13 00:11:44;;;;;;;3.80;3.50;;;7.80;99.90;;;;;;5053135;28;20226;-75
2022/04/13 00:14:10;;;;;;;4.25;3.85;;;7.80;99.90;;;;;;5052139;28;20594;-75
2022/04/13 00:16:36;;;;;;;4.10;3.80;;;7.70;99.90;;;;;;5052548;28;20202;-75
2022/04/13 00:19:02;;;;;;;3.87;3.30;;;7.70;99.90;;;;;;5053186;28;20176;-75
2022/04/13 00:21:27;;;;;;;4.10;3.70;;;7.60;99.90;;;;;;5052485;28;20215;-74
2022/04/13 00:23:53;;;;;;;4.50;3.72;;;7.50;99.90;;;;;;5045043;28;20204;-74
2022/04/13 00:26:19;;;;;;;6.97;4.03;;;7.50;99.90;;;;;;5033115;28;20187;-74
2022/04/13 00:28:44;;;;;;;3.70;3.40;;;7.40;99.90;;;;;;5033102;28;20207;-74
2022/04/13 00:31:10;;;;;;;4.75;4.30;;;7.40;99.90;;;;;;5032353;28;20228;-74
2022/04/13 00:33:35;;;;;;;3.72;3.40;;;7.40;99.90;;;;;;5032763;28;20234;-73
2022/04/13 00:36:01;;;;;;;6.50;4.00;;;7.40;99.90;;;;;;5033141;28;20185;-73
2022/04/13 00:38:27;;;;;;;5.60;3.63;;;7.40;99.90;;;;;;5032867;28;20181;-73
2022/04/13 00:40:52;;;;;;;5.60;3.47;;;7.40;99.90;;;;;;5032906;28;20241;-73
2022/04/13 00:43:18;;;;;;;4.77;3.93;;;7.30;99.90;;;;;;5052383;28;20567;-75
2022/04/13 00:45:50;;;;;;;5.67;4.23;;;7.30;99.90;;;;;;5051730;28;20183;-73
2022/04/13 00:48:35;;;;;;;3.77;3.47;;;7.20;99.90;;;;;;5045755;28;20192;-74
2022/04/13 00:51:00;;;;;;;5.80;4.00;;;7.10;99.90;;;;;;5042440;28;20304;-74
2022/04/13 00:53:26;;;;;;;6.67;3.67;;;6.90;99.90;;;;;;5042094;28;20629;-74
2022/04/13 00:55:57;;;;;;;4.80;3.60;;;6.90;99.90;;;;;;5049344;28;20168;-74
2022/04/13 00:58:26;;;;;;;4.27;3.87;;;6.80;99.90;;;;;;5045148;28;20265;-74
2022/04/13 01:00:53;;;;;;;5.97;4.07;;;6.80;99.90;;;;;;5051822;28;20180;-74
2022/04/13 01:03:20;;;;;;;4.87;3.77;;;6.80;99.90;;;;;;5050516;28;20210;-74
2022/04/13 01:05:48;;;;;;;3.73;3.43;;;6.80;99.90;;;;;;5049604;28;20213;-74
2022/04/13 01:08:15;;;;;;;4.37;3.90;;;6.70;99.90;;;;;;5052008;28;20172;-74
2022/04/13 01:10:42;;;;;;;3.80;3.43;;;6.60;99.90;;;;;;5051599;28;20191;-75
2022/04/13 01:13:08;;;;;;;7.73;4.07;;;6.60;99.90;;;;;;5045228;28;20223;-74
2022/04/13 01:15:34;;;;;;;6.47;3.83;;;6.60;99.90;;;;;;5034129;28;20192;-74
2022/04/13 01:18:00;;;;;;;5.07;3.63;;;6.50;99.90;;;;;;5032175;28;20173;-74
2022/04/13 01:20:26;;;;;;;4.00;3.43;;;6.50;99.90;;;;;;5033382;28;20191;-74
2022/04/13 01:22:52;;;;;;;4.27;3.87;;;6.40;99.90;;;;;;5047232;28;20207;-74
2022/04/13 01:25:18;;;;;;;3.80;3.50;;;6.40;99.90;;;;;;5052337;28;20176;-74
2022/04/13 01:27:43;;;;;;;4.07;3.77;;;6.40;99.90;;;;;;5051219;28;20641;-74
2022/04/13 01:30:11;;;;;;;4.10;3.80;;;6.40;99.90;;;;;;5049902;28;20204;-74
2022/04/13 01:32:37;;;;;;;5.17;3.90;;;6.40;99.90;;;;;;5051577;28;20192;-74
2022/04/13 01:35:02;;;;;;;4.33;3.53;;;6.40;99.90;;;;;;5039499;28;20633;-74
2022/04/13 01:37:28;;;;;;;4.00;3.60;;;6.30;99.90;;;;;;5049719;28;20257;-74
2022/04/13 01:39:54;;;;;;;4.40;3.80;;;6.30;99.90;;;;;;5050916;28;20707;-74
2022/04/13 01:42:20;;;;;;;4.23;3.53;;;6.30;99.90;;;;;;5051115;28;20207;-74
2022/04/13 01:44:46;;;;;;;4.70;3.60;;;6.20;99.90;;;;;;5051099;28;20561;-74
2022/04/13 01:47:11;;;;;;;4.67;3.77;;;6.20;99.90;;;;;;5036874;28;20284;-74
2022/04/13 01:49:38;;;;;;;6.23;3.23;;;6.20;99.90;;;;;;5031802;28;20204;-74
2022/04/13 01:52:05;;;;;;;4.30;3.70;;;6.20;99.90;;;;;;5031034;28;20219;-74
2022/04/13 01:54:31;;;;;;;3.43;3.13;;;6.30;99.90;;;;;;5060168;28;20787;-74
2022/04/13 01:56:57;;;;;;;4.07;3.77;;;6.30;99.90;;;;;;5070390;28;20198;-74
2022/04/13 01:59:23;;;;;;;3.47;3.17;;;6.30;99.90;;;;;;5048585;28;20192;-74
2022/04/13 02:01:48;;;;;;;4.57;3.60;;;6.20;99.90;;;;;;5049920;28;20711;-74
2022/04/13 02:04:17;;;;;;;5.13;3.60;;;6.20;99.90;;;;;;5051308;28;20271;-74
2022/04/13 02:06:42;;;;;;;4.80;3.43;;;6.20;99.90;;;;;;5043289;28;20175;-74
2022/04/13 02:09:08;;;;;;;3.87;3.57;;;6.30;99.90;;;;;;5051366;28;20190;-74
2022/04/13 02:11:33;;;;;;;3.90;3.60;;;6.30;99.90;;;;;;5045887;28;20219;-74
2022/04/13 02:13:59;;;;;;;4.23;3.90;;;6.40;99.90;;;;;;5050684;28;20218;-74
2022/04/13 02:16:25;;;;;;;6.40;4.20;;;6.40;99.90;;;;;;5051403;28;20176;-74
2022/04/13 02:18:50;;;;;;;5.83;4.30;;;6.20;99.90;;;;;;5046300;28;20235;-74
2022/04/13 02:21:16;;;;;;;5.13;4.20;;;6.10;99.90;;;;;;5031166;28;20181;-74
2022/04/13 02:23:42;;;;;;;4.57;4.17;;;6.00;99.90;;;;;;5031034;28;20228;-74
2022/04/13 02:26:08;;;;;;;5.30;4.17;;;5.90;99.90;;;;;;5013708;28;20176;-74
2022/04/13 02:28:33;;;;;;;4.67;4.00;;;5.90;99.90;;;;;;5047140;28;20570;-74
2022/04/13 02:30:59;;;;;;;4.93;4.53;;;5.80;99.90;;;;;;5051229;28;20207;-74
2022/04/13 02:33:25;;;;;;;4.97;4.10;;;5.90;99.90;;;;;;5051005;28;20579;-74
2022/04/13 02:35:51;;;;;;;4.43;3.90;;;5.80;99.90;;;;;;5051313;28;20168;-74
2022/04/13 02:38:16;;;;;;;4.30;3.90;;;5.70;99.90;;;;;;5047389;28;20552;-74
2022/04/13 02:40:43;;;;;;;3.90;3.60;;;5.80;99.90;;;;;;5034801;28;20617;-74
2022/04/13 02:43:08;;;;;;;5.00;3.77;;;5.80;99.90;;;;;;5034710;28;20208;-74
2022/04/13 02:45:35;;;;;;;3.90;3.60;;;5.80;99.90;;;;;;5035040;28;20623;-74
2022/04/13 02:48:00;;;;;;;6.57;4.27;;;5.80;99.90;;;;;;5044396;28;20179;-74
2022/04/13 02:50:26;;;;;;;5.53;4.00;;;5.70;99.90;;;;;;5054799;28;20202;-74
2022/04/13 02:52:54;;;;;;;3.97;3.57;;;5.70;99.90;;;;;;5054399;28;20199;-74
2022/04/13 02:55:20;;;;;;;4.33;3.97;;;5.70;99.90;;;;;;5051775;28;20186;-74
2022/04/13 02:57:46;;;;;;;3.73;3.43;;;5.80;99.90;;;;;;5050285;28;20203;-74
2022/04/13 03:00:12;;;;;;;4.30;3.90;;;5.80;99.90;;;;;;5053651;28;20216;-74
2022/04/13 03:02:41;;;;;;;4.03;3.70;;;5.80;99.90;;;;;;5054187;28;20196;-74
2022/04/13 03:05:07;;;;;;;4.50;3.70;;;5.90;99.90;;;;;;5040332;28;20184;-74
2022/04/13 03:07:33;;;;;;;4.27;3.87;;;5.80;99.90;;;;;;5051821;28;20189;-74
2022/04/13 03:09:59;;;;;;;6.40;3.80;;;5.80;99.90;;;;;;5061795;28;20563;-74
2022/04/13 03:12:26;;;;;;;4.00;3.70;;;5.70;99.90;;;;;;5070926;28;20182;-74
2022/04/13 03:14:52;;;;;;;4.87;4.43;;;5.80;99.90;;;;;;5072675;28;20167;-75
2022/04/13 03:17:17;;;;;;;4.47;4.07;;;5.80;99.90;;;;;;5062422;28;20191;-75
2022/04/13 03:19:43;;;;;;;4.10;3.70;;;5.80;99.90;;;;;;5033982;28;20180;-75
2022/04/13 03:22:08;;;;;;;3.93;3.53;;;5.90;99.90;;;;;;5034261;28;20173;-75
2022/04/13 03:24:34;;;;;;;4.73;3.90;;;6.00;99.90;;;;;;5051744;28;20238;-75
2022/04/13 03:27:00;;;;;;;4.00;3.60;;;6.00;99.90;;;;;;5053848;28;20619;-75
2022/04/13 03:29:25;;;;;;;7.23;3.67;;;6.00;99.90;;;;;;5054029;28;20669;-75
2022/04/13 03:31:51;;;;;;;4.30;3.90;;;6.00;99.90;;;;;;5053741;28;20245;-75
2022/04/13 03:34:20;;;;;;;4.40;4.00;;;6.00;99.90;;;;;;5053326;28;20606;-75
2022/04/13 03:36:49;;;;;;;5.43;4.07;;;6.00;99.90;;;;;;5054002;28;20234;-75
2022/04/13 03:39:16;;;;;;;4.23;3.80;;;5.90;99.90;;;;;;5047865;28;20177;-74
2022/04/13 03:41:42;;;;;;;5.13;4.37;;;5.90;99.90;;;;;;5033774;28;20243;-75
2022/04/13 03:44:08;;;;;;;4.07;3.67;;;5.80;99.90;;;;;;5048636;28;20203;-74
2022/04/13 03:46:34;;;;;;;4.43;3.87;;;5.70;99.90;;;;;;5050306;28;20191;-75
2022/04/13 03:48:59;;;;;;;4.70;4.10;;;5.60;99.90;;;;;;5053343;28;20180;-74
2022/04/13 03:51:26;;;;;;;4.93;4.00;;;5.60;99.90;;;;;;5052462;28;20617;-74
2022/04/13 03:53:51;;;;;;;4.27;3.87;;;5.50;99.90;;;;;;5053368;28;20192;-75
2022/04/13 03:56:17;;;;;;;4.30;3.90;;;5.50;99.90;;;;;;5052092;28;20176;-74
2022/04/13 03:58:42;;;;;;;5.57;4.47;;;5.50;99.90;;;;;;5049180;28;20318;-74
2022/04/13 04:01:12;;;;;;;4.20;3.83;;;5.50;99.90;;;;;;5039081;28;20195;-74
2022/04/13 04:03:37;;;;;;;4.83;4.03;;;5.50;99.90;;;;;;5033591;28;20200;-74
2022/04/13 04:06:04;;;;;;;11.03;4.23;;;5.40;99.90;;;;;;5041072;28;20191;-75
2022/04/13 04:08:32;;;;;;;4.63;4.17;;;5.40;99.90;;;;;;5051881;28;20203;-75
2022/04/13 04:10:58;;;;;;;4.37;3.97;;;5.40;99.90;;;;;;5039349;28;20204;-74
2022/04/13 04:13:24;;;;;;;4.67;3.87;;;5.40;99.90;;;;;;5041816;28;20200;-74
2022/04/13 04:15:50;;;;;;;4.20;3.80;;;5.50;99.90;;;;;;5047573;28;20286;-74
2022/04/13 04:18:15;;;;;;;6.37;4.17;;;5.40;99.90;;;;;;5050560;28;20188;-74
2022/04/13 04:20:41;;;;;;;5.00;3.93;;;5.40;99.90;;;;;;5038835;28;20185;-74
2022/04/13 04:23:07;;;;;;;3.53;3.23;;;5.40;99.90;;;;;;5036305;28;20324;-75
2022/04/13 04:25:33;;;;;;;4.27;3.90;;;5.60;99.90;;;;;;5045565;28;20263;-75
2022/04/13 04:27:58;;;;;;;4.27;3.97;;;5.70;99.90;;;;;;5063499;28;20192;-75
2022/04/13 04:30:24;;;;;;;5.60;3.87;;;5.80;99.90;;;;;;5046542;28;20215;-75
2022/04/13 04:32:50;;;;;;;5.40;4.40;;;5.70;99.90;;;;;;5051651;28;20255;-75
2022/04/13 04:35:15;;;;;;;4.27;3.87;;;5.70;99.90;;;;;;5043476;28;20188;-75
2022/04/13 04:37:41;;;;;;;4.60;3.97;;;5.60;99.90;;;;;;5051756;28;20267;-74
2022/04/13 04:40:07;;;;;;;8.13;4.20;;;5.70;99.90;;;;;;5052838;28;20602;-74
2022/04/13 04:42:47;;;;;;;4.70;4.20;;;5.70;99.90;;;;;;5043011;28;20627;-74
2022/04/13 04:45:16;;;;;;;5.67;3.97;;;5.70;99.90;;;;;;5050126;28;20647;-73
2022/04/13 04:47:42;;;;;;;6.00;4.40;;;5.80;99.90;;;;;;5046739;28;20684;-73
2022/04/13 04:50:09;;;;;;;4.53;4.13;;;5.90;99.90;;;;;;5043270;28;20241;-73
2022/04/13 04:52:40;;;;;;;7.07;4.50;;;5.90;99.90;;;;;;5043913;28;20579;-73
2022/04/13 04:55:06;;;;;;;6.73;4.00;;;5.90;99.90;;;;;;5039270;28;20173;-74
2022/04/13 04:57:31;;;;;;;6.27;4.47;;;5.90;99.90;;;;;;5032413;28;20196;-74
2022/04/13 04:59:57;;;;;;;5.07;4.57;;;5.80;99.90;;;;;;5039549;28;20195;-74
2022/04/13 05:02:22;;;;;;;8.30;4.90;;;5.90;99.90;;;;;;5034020;28;20231;-74
2022/04/13 05:04:48;;;;;;;4.83;4.23;;;5.90;99.90;;;;;;5038248;28;20208;-73
2022/04/13 05:07:14;;;;;;;4.70;3.73;;;5.90;99.90;;;;;;5052026;28;20215;-76
2022/04/13 05:09:39;;;;;;;6.33;4.00;;;6.00;99.90;;;;;;5043198;28;20563;-73
2022/04/13 05:12:05;;;;;;;4.40;4.00;;;6.10;99.90;;;;;;5034079;28;20180;-73
2022/04/13 05:14:31;;;;;;;6.17;4.60;;;6.10;99.90;;;;;;5051056;28;20208;-73
2022/04/13 05:16:56;;;;;;;5.73;4.30;;;6.30;99.90;;;;;;5046703;28;20184;-73
2022/04/13 05:19:22;;;;;;;4.80;4.33;;;6.40;99.90;;;;;;5040384;28;20654;-73
2022/04/13 05:21:47;;;;;;;5.77;4.40;;;6.40;99.90;;;;;;5039492;28;20215;-75
2022/04/13 05:24:13;;;;;;;6.60;4.80;;;6.50;99.90;;;;;;5042631;28;20207;-76
2022/04/13 05:26:39;;;;;;;7.27;4.60;;;6.60;99.90;;;;;;5046461;28;20183;-75
2022/04/13 05:29:05;;;;;;;4.73;4.20;;;6.60;99.90;;;;;;5044643;28;20222;-76
2022/04/13 05:31:30;;;;;;;6.50;4.47;;;6.70;99.90;;;;;;5043126;28;20208;-76
2022/04/13 05:33:56;;;;;;;7.37;5.07;;;6.90;99.90;;;;;;5040027;28;20563;-76
2022/04/13 05:36:21;;;;;;;5.93;4.60;;;7.00;99.90;;;;;;5041985;28;20183;-75
2022/04/13 05:38:47;;;;;;;7.13;4.73;;;6.90;99.90;;;;;;5036484;28;20176;-75
2022/04/13 05:41:13;;;;;;;7.57;4.17;;;7.00;99.90;;;;;;5044254;28;20184;-75
2022/04/13 05:43:38;;;;;;;8.00;5.00;;;7.00;99.90;;;;;;5043820;28;20208;-76
2022/04/13 05:46:04;;;;;;;6.63;4.87;;;7.10;99.90;;;;;;5046231;28;20183;-76
2022/04/13 05:48:30;;;;;;;6.97;4.83;;;7.10;99.90;;;;;;5039106;28;20195;-76
2022/04/13 05:50:55;;;;;;;6.53;4.97;;;7.20;99.90;;;;;;5041977;28;20208;-75
2022/04/13 05:53:22;;;;;;;6.27;4.93;;;7.30;99.90;;;;;;5043927;28;20951;-77
2022/04/13 05:55:55;;;;;;;6.13;4.60;;;7.30;99.90;;;;;;5043916;28;20257;-76
2022/04/13 05:58:24;;;;;;;5.33;4.70;;;7.50;99.90;;;;;;5039365;28;20309;-77
2022/04/13 06:00:50;;;;;;;5.27;4.63;;;7.60;99.90;;;;;;5044324;28;20188;-76
2022/04/13 06:03:17;;;;;;;7.57;5.37;;;7.70;99.90;;;;;;5045390;28;20550;-75
2022/04/13 06:05:43;;;;;;;9.43;3.97;;;7.80;99.90;;;;;;5041306;28;20257;-75
2022/04/13 06:08:08;;;;;;;5.18;4.68;;;8.00;99.90;;;;;;5045255;28;20230;-76
2022/04/13 06:10:34;;;;;;;5.83;4.90;;;8.20;99.90;;;;;;5050711;28;20684;-74
2022/04/13 06:12:59;;;;;;;4.63;4.22;;;8.30;99.90;;;;;;5052820;28;20204;-74
2022/04/13 06:15:25;;;;;;;5.25;4.85;;;8.30;99.90;;;;;;5054034;28;20172;-71
2022/04/13 06:17:51;;;;;;;7.10;4.80;;;8.40;99.90;;;;;;5052365;28;20635;-71
2022/04/13 06:20:16;;;;;;;6.75;4.05;;;8.50;99.90;;;;;;5054683;28;20184;-71
2022/04/13 06:22:43;;;;;;;6.75;4.72;;;8.60;99.90;;;;;;5054744;28;20229;-72
2022/04/13 06:25:11;;;;;;;4.95;4.18;;;8.70;99.90;;;;;;5047511;28;20241;-72
2022/04/13 06:27:36;;;;;;;5.78;5.15;;;8.80;99.90;;;;;;5050446;28;20180;-71
2022/04/13 06:30:03;;;;;;;5.13;4.63;;;8.90;99.90;;;;;;5049718;28;20258;-71
2022/04/13 06:32:33;;;;;;;6.70;4.90;;;9.00;99.90;;;;;;5046385;28;20181;-71
2022/04/13 06:35:00;;;;;;;5.50;4.57;;;9.10;99.90;;;;;;5039443;28;20591;-73
2022/04/13 06:37:26;;;;;;;5.07;4.53;;;9.30;99.90;;;;;;5049663;28;20175;-73
2022/04/13 06:39:52;;;;;;;5.15;4.65;;;9.40;99.90;;;;;;5048768;28;20183;-73
2022/04/13 06:42:17;;;;;;;6.28;5.18;;;9.40;99.90;;;;;;5042398;28;20613;-71
2022/04/13 06:44:43;;;;;;;5.68;4.50;;;9.60;99.90;;;;;;5050051;28;20183;-71
2022/04/13 06:47:08;;;;;;;5.82;4.55;;;9.70;99.90;;;;;;5049064;28;20650;-72
2022/04/13 06:49:34;;;;;;;6.30;5.28;;;9.80;99.90;;;;;;5055356;28;20175;-73
2022/04/13 06:52:00;;;;;;;7.13;4.97;;;9.90;99.90;;;;;;5049331;28;20663;-73
2022/04/13 06:54:27;;;;;;;9.25;5.40;;;10.10;99.90;;;;;;5050518;28;20323;-76
2022/04/13 06:56:54;;;;;;;5.50;5.00;;;10.20;99.90;;;;;;5054524;28;20596;-74
2022/04/13 06:59:19;;;;;;;8.85;5.72;;;10.40;99.90;;;;;;5046949;28;20172;-74
2022/04/13 07:01:45;;;;;;;8.13;5.13;;;10.50;99.90;;;;;;5043080;28;20249;-74
2022/04/13 07:04:10;;;;;;;5.07;4.57;;;10.50;99.90;;;;;;5044274;28;20207;-74
2022/04/13 07:06:36;;;;;;;6.78;5.57;;;10.70;99.90;;;;;;5043850;28;20650;-74
2022/04/13 07:09:02;;;;;;;5.95;5.03;;;10.90;99.90;;;;;;5043668;28;20190;-76
2022/04/13 07:11:27;;;;;;;13.65;12.05;;;11.20;99.90;;;;;;5052648;28;20301;-77
2022/04/13 07:13:53;;;;;;;10.15;6.93;;;11.40;99.90;;;;;;5053248;28;20237;-77
2022/04/13 07:16:19;;;;;;;9.20;7.22;;;11.60;99.90;;;;;;5053229;28;20204;-77
2022/04/13 07:18:44;;;;;;;10.57;5.38;;;11.70;99.90;;;;;;5054008;28;20575;-76
2022/04/13 07:21:10;;;;;;;8.32;5.57;;;11.90;99.90;;;;;;5053616;28;20271;-76
2022/04/13 07:23:35;;;;;;;6.70;5.10;;;12.10;99.90;;;;;;5053561;28;20202;-76
2022/04/13 07:26:01;;;;;;;5.85;5.05;;;12.30;99.90;;;;;;5037555;28;20188;-77
2022/04/13 07:28:26;;;;;;;9.75;5.20;;;12.40;99.90;;;;;;5016711;28;20604;-76
2022/04/13 07:30:52;;;;;;;4.93;4.43;;;12.50;99.90;;;;;;5044943;28;20257;-77
2022/04/13 07:33:17;;;;;;;10.73;5.70;;;12.70;99.90;;;;;;5053714;28;20196;-78
2022/04/13 07:35:43;;;;;;;6.68;4.88;;;12.90;99.90;;;;;;5039551;28;20271;-79
2022/04/13 07:38:09;;;;;;;7.00;4.72;;;13.00;99.90;;;;;;5035218;28;20234;-76
2022/04/13 07:40:34;;;;;;;7.93;6.22;;;13.00;99.90;;;;;;5034478;28;20181;-76
2022/04/13 07:43:00;;;;;;;7.25;5.10;;;13.20;99.90;;;;;;5034230;28;20342;-76
2022/04/13 07:45:26;;;;;;;6.18;4.68;;;13.30;99.90;;;;;;5043495;28;20199;-74
2022/04/13 07:47:51;;;;;;;6.65;4.57;;;13.40;99.90;;;;;;5050488;28;20180;-76
2022/04/13 07:50:17;;;;;;;6.68;5.35;;;13.50;99.90;;;;;;5054673;28;20208;-76
2022/04/13 07:52:43;;;;;;;7.15;5.03;;;13.60;99.90;;;;;;5055239;28;20192;-75
2022/04/13 07:55:10;;;;;;;6.78;4.95;;;13.80;99.90;;;;;;5050815;28;20256;-76
2022/04/13 07:57:37;;;;;;;5.55;5.03;;;14.00;99.90;;;;;;5034475;28;20271;-78
2022/04/13 08:00:04;;;;;;;6.47;5.10;;;14.10;99.90;;;;;;5036130;28;20177;-77
2022/04/13 08:02:32;;;;;;;8.23;4.85;;;14.20;99.90;;;;;;5047176;28;20211;-77
2022/04/13 08:04:58;;;;;;;8.07;5.03;;;14.50;99.90;;;;;;5041461;28;20238;-77
2022/04/13 08:07:24;;;;;;;10.48;4.20;;;14.70;99.90;;;;;;5047775;28;20565;-77
2022/04/13 08:09:50;;;;;;;12.00;4.78;;;14.70;99.90;;;;;;5047914;28;20564;-77
2022/04/13 08:12:16;;;;;;;7.90;5.03;;;14.70;98.40;;;;;;5042386;28;20180;-77
2022/04/13 08:14:41;;;;;;;8.02;4.90;;;14.90;99.00;;;;;;5036365;28;20675;-77
2022/04/13 08:17:07;;;;;;;9.82;5.30;;;15.20;98.60;;;;;;5034118;28;20231;-77
2022/04/13 08:19:33;;;;;;;8.13;5.60;;;15.40;97.30;;;;;;5033729;28;20173;-77
2022/04/13 08:21:58;;;;;;;10.70;6.15;;;15.50;96.80;;;;;;5035478;28;20609;-76
2022/04/13 08:24:24;;;;;;;8.25;4.85;;;15.70;96.60;;;;;;5041043;28;20200;-76
2022/04/13 08:26:50;;;;;;;6.28;5.22;;;16.00;94.70;;;;;;5048883;28;20184;-76
2022/04/13 08:29:15;;;;;;;6.35;4.72;;;16.20;93.40;;;;;;5051617;28;20164;-76
2022/04/13 08:31:41;;;;;;;7.50;5.13;;;16.30;93.70;;;;;;5047361;28;20576;-77
2022/04/13 08:34:07;;;;;;;9.60;5.03;;;16.50;92.90;;;;;;5048339;28;20209;-77
2022/04/13 08:36:32;;;;;;;6.90;4.72;;;16.50;92.20;;;;;;5046876;28;20176;-76
2022/04/13 08:38:58;;;;;;;6.63;4.53;;;16.70;91.10;;;;;;5046323;28;20176;-77
2022/04/13 08:41:51;;;;;;;4.50;4.10;;;17.00;91.30;;;;;;5046349;28;20258;-76
2022/04/13 08:44:45;;;;;;;8.05;5.03;;;17.30;87.50;;;;;;5041676;28;20724;-78
2022/04/13 08:47:22;;;;;;;7.60;5.13;;;17.10;87.60;;;;;;5048019;28;20226;-77
2022/04/13 08:49:50;;;;;;;8.27;5.20;;;17.30;87.90;;;;;;5053048;28;20235;-78
2022/04/13 08:52:24;;;;;;;9.07;5.55;;;17.50;85.50;;;;;;5047112;28;20187;-77
2022/04/13 08:54:50;;;;;;;7.18;5.30;;;17.50;85.10;;;;;;5052998;28;20271;-78
2022/04/13 08:57:19;;;;;;;8.35;4.75;;;17.60;83.30;;;;;;5044799;28;20227;-77
2022/04/13 09:00:02;;;;;;;8.43;4.95;;;17.90;85.00;;;;;;5042539;28;20182;-77
2022/04/13 09:02:55;;;;;;;10.70;5.30;;;18.10;82.80;;;;;;5042132;28;20525;-79
2022/04/13 09:05:24;;;;;;;5.60;4.97;;;18.30;78.20;;;;;;5043392;28;20190;-77
2022/04/13 09:08:05;;;;;;;5.10;4.70;;;18.80;77.90;;;;;;5040535;28;20271;-77
2022/04/13 09:10:31;;;;;;;7.72;4.60;;;19.30;76.30;;;;;;5045383;28;20198;-77
2022/04/13 09:12:58;;;;;;;5.97;5.47;;;20.80;71.40;;;;;;5038615;28;20188;-78
2022/04/13 09:15:25;;;;;;;6.85;4.93;;;22.20;68.70;;;;;;5018577;28;20176;-78
2022/04/13 09:17:51;;;;;;;6.45;5.28;;;23.20;63.50;;;;;;5041212;28;20711;-77
2022/04/13 09:20:17;;;;;;;9.45;4.85;;;24.40;59.20;;;;;;5044467;28;20188;-77
2022/04/13 09:22:43;;;;;;;6.97;5.15;;;25.30;55.60;;;;;;5045061;28;20578;-81
2022/04/13 09:25:10;;;;;;;5.95;5.07;;;26.00;53.10;;;;;;5040766;28;20276;-78
2022/04/13 09:27:38;;;;;;;6.25;4.38;;;26.90;51.10;;;;;;5048749;28;20214;-80
2022/04/13 09:30:05;;;;;;;7.68;4.85;;;27.70;49.70;;;;;;5051327;28;20562;-79
2022/04/13 09:32:31;;;;;;;10.05;5.68;;;28.60;48.40;;;;;;5042323;28;20203;-81
2022/04/13 09:34:58;;;;;;;5.43;4.93;;;29.10;46.40;;;;;;5043883;28;20267;-78
2022/04/13 09:37:24;;;;;;;7.40;4.82;;;29.80;46.30;;;;;;5041798;28;20172;-75
2022/04/13 09:39:50;;;;;;;6.18;4.30;;;29.80;42.30;;;;;;5041612;28;20172;-81
2022/04/13 09:42:16;;;;;;;8.07;4.70;;;29.40;41.70;;;;;;5039036;28;20180;-76
2022/04/13 09:44:42;;;;;;;9.77;4.70;;;29.50;43.30;;;;;;5036346;28;20665;-77
2022/04/13 09:47:10;;;;;;;6.60;4.00;;;29.30;43.80;;;;;;5051599;28;20168;-76
2022/04/13 09:49:40;;;;;;;8.85;3.95;;;29.70;41.10;;;;;;5048313;28;20176;-77
2022/04/13 09:52:06;;;;;;;5.22;4.00;;;29.90;42.40;;;;;;5040761;28;20654;-75
2022/04/13 09:54:32;;;;;;;5.80;4.05;;;30.50;40.80;;;;;;5036535;28;20212;-76
2022/04/13 09:56:58;;;;;;;4.72;3.85;;;30.50;39.50;;;;;;5017091;28;20200;-73
2022/04/13 09:59:28;;;;;;;5.25;3.40;;;30.40;38.90;;;;;;5037075;28;20180;-76
2022/04/13 10:01:53;;;;;;;4.80;3.90;;;30.50;37.20;;;;;;5039331;28;20179;-76
2022/04/13 10:04:37;;;;;;;4.82;4.40;;;30.60;39.20;;;;;;5039257;28;20621;-78
2022/04/13 10:07:17;;;;;;;4.38;3.97;;;30.70;39.50;;;;;;5039605;28;20190;-77
2022/04/13 10:09:43;;;;;;;5.57;4.45;;;31.20;38.60;;;;;;5038038;28;20180;-77
2022/04/13 10:12:09;;;;;;;7.55;4.88;;;31.30;38.60;;;;;;5043349;28;20179;-77
2022/04/13 10:14:35;;;;;;;6.13;4.30;;;31.40;37.70;;;;;;5038741;28;20223;-77
2022/04/13 10:17:08;;;;;;;5.50;4.50;;;31.00;37.90;;;;;;5040392;28;20589;-77
2022/04/13 10:19:35;;;;;;;9.32;4.25;;;30.10;37.90;;;;;;5041131;28;20570;-76
2022/04/13 10:22:01;;;;;;;4.20;3.90;;;29.20;40.40;;;;;;5043500;28;20263;-76
2022/04/13 10:24:32;;;;;;;5.47;4.90;;;28.90;40.60;;;;;;5037669;28;20744;-76
2022/04/13 10:27:10;;;;;;;4.90;4.50;;;28.50;39.80;;;;;;5042462;28;20175;-73
2022/04/13 10:29:37;;;;;;;5.22;4.82;;;28.20;40.00;;;;;;5037452;28;20181;-75
2022/04/13 10:32:08;;;;;;;7.43;4.85;;;27.70;40.90;;;;;;5037355;28;20164;-76
2022/04/13 10:34:48;;;;;;;5.38;4.50;;;27.70;40.50;;;;;;5036882;28;20228;-75
2022/04/13 10:37:20;;;;;;;4.75;4.07;;;28.10;40.60;;;;;;5034385;28;20181;-75
2022/04/13 10:39:47;;;;;;;5.30;4.55;;;29.40;39.70;;;;;;5042112;28;20251;-75
2022/04/13 10:42:16;;;;;;;5.10;4.57;;;30.40;38.70;;;;;;5039435;28;20701;-75
2022/04/13 10:44:45;;;;;;;4.85;4.32;;;31.20;38.30;;;;;;5039389;28;20184;-73
2022/04/13 10:47:16;;;;;;;4.40;4.03;;;32.80;38.40;;;;;;5043690;28;20176;-73
2022/04/13 10:49:58;;;;;;;4.90;4.22;;;34.50;35.80;;;;;;5036774;28;20180;-73
2022/04/13 10:52:28;;;;;;;4.47;3.78;;;34.60;34.10;;;;;;5037956;28;20682;-76
2022/04/13 10:55:01;;;;;;;4.22;3.92;;;33.60;34.80;;;;;;5029453;28;20639;-76
2022/04/13 10:57:39;;;;;;;4.65;4.22;;;33.50;34.90;;;;;;5030811;28;20730;-74
2022/04/13 11:00:10;;;;;;;4.45;3.53;;;33.70;34.70;;;;;;5049114;28;20171;-74
2022/04/13 11:02:54;;;;;;;3.90;3.58;;;34.70;35.10;;;;;;5053429;28;20199;-74
2022/04/13 11:05:25;;;;;;;4.07;3.30;;;35.50;34.10;;;;;;5054670;28;20178;-74
2022/04/13 11:08:21;;;;;;;3.55;3.25;;;35.30;33.80;;;;;;5042907;28;20168;-74
2022/04/13 11:10:49;;;;;;;3.30;2.83;;;35.80;34.50;;;;;;5034710;28;20576;-74
2022/04/13 11:13:16;;;;;;;5.15;3.63;;;35.70;34.80;;;;;;5034033;28;20188;-74
2022/04/13 11:15:48;;;;;;;3.97;3.45;;;35.80;33.90;;;;;;5047420;28;20639;-74
2022/04/13 11:18:17;;;;;;;4.50;2.97;;;37.00;33.00;;;;;;5034525;28;20160;-75
2022/04/13 11:21:01;;;;;;;3.40;3.10;;;37.50;31.80;;;;;;5036897;28;20261;-74
2022/04/13 11:23:53;;;;;;;4.35;3.10;;;37.20;31.90;;;;;;5050058;28;20248;-74
2022/04/13 11:26:34;;;;;;;4.50;4.03;;;37.90;31.50;;;;;;5041952;28;20587;-74
2022/04/13 11:29:13;;;;;;;3.45;3.15;;;37.70;31.30;;;;;;5047552;28;20179;-74
2022/04/13 11:32:01;;;;;;;3.80;3.30;;;38.10;31.60;;;;;;5049159;28;20209;-74
2022/04/13 11:34:44;;;;;;;3.35;3.05;;;38.10;31.60;;;;;;5051589;28;20183;-74
2022/04/13 11:37:15;;;;;;;4.55;3.50;;;38.10;30.70;;;;;;5053879;28;20653;-74
2022/04/13 11:39:47;;;;;;;3.13;2.92;;;38.00;31.20;;;;;;5051120;28;20641;-74
2022/04/13 11:42:24;;;;;;;6.72;3.30;;;37.70;32.00;;;;;;5068230;28;20603;-74
2022/04/13 11:45:19;;;;;;;3.03;2.83;;;36.80;31.20;;;;;;5064373;28;20226;-74
2022/04/13 11:47:54;;;;;;;3.65;3.00;;;36.50;32.60;;;;;;5037043;28;20187;-74
2022/04/13 11:50:29;;;;;;;3.35;3.10;;;36.30;32.10;;;;;;5047212;28;20203;-75
2022/04/13 11:53:03;;;;;;;4.30;3.35;;;36.90;32.30;;;;;;5046533;28;20190;-75
2022/04/13 11:55:41;;;;;;;3.15;2.83;;;37.50;32.00;;;;;;5053117;28;20179;-76
2022/04/13 11:58:09;;;;;;;4.15;3.17;;;37.50;31.80;;;;;;5042683;28;20191;-74
2022/04/13 12:01:05;;;;;;;3.97;3.35;;;38.30;32.20;;;;;;5037830;28;20210;-72
2022/04/13 12:03:39;;;;;;;4.00;3.70;;;38.10;30.80;;;;;;5046444;28;20199;-73
2022/04/13 12:06:11;;;;;;;4.03;3.63;;;38.10;31.50;;;;;;5043666;28;20736;-72
2022/04/13 12:08:40;;;;;;;4.03;3.42;;;37.50;32.00;;;;;;5041172;28;20180;-73
2022/04/13 12:11:07;;;;;;;5.30;3.50;;;37.30;32.30;;;;;;5042250;28;20239;-73
2022/04/13 12:13:45;;;;;;;3.85;3.55;;;37.10;33.30;;;;;;5042008;28;20203;-72
2022/04/13 12:16:19;;;;;;;4.40;3.28;;;35.90;32.80;;;;;;5044607;28;20171;-72
2022/04/13 12:18:45;;;;;;;4.85;3.00;;;36.20;33.00;;;;;;5035423;28;20672;-76
2022/04/13 12:21:14;;;;;;;3.72;3.08;;;36.00;32.90;;;;;;5045417;28;20657;-73
2022/04/13 12:23:40;;;;;;;6.53;2.97;;;36.40;33.50;;;;;;5039982;28;20209;-73
2022/04/13 12:26:09;;;;;;;3.65;2.65;;;36.40;32.30;;;;;;5041155;28;20187;-72
2022/04/13 12:28:35;;;;;;;4.03;2.80;;;36.50;33.10;;;;;;5043259;28;20263;-73
2022/04/13 12:31:06;;;;;;;3.17;2.88;;;36.50;31.60;;;;;;5044344;28;20191;-73
2022/04/13 12:33:33;;;;;;;4.95;3.40;;;35.70;33.50;;;;;;5040181;28;20207;-73
2022/04/13 12:36:06;;;;;;;4.30;3.00;;;35.00;33.70;;;;;;5042724;28;20646;-73
2022/04/13 12:38:33;;;;;;;3.05;2.85;;;34.50;34.50;;;;;;5045094;28;20270;-73
2022/04/13 12:41:19;;;;;;;3.88;2.92;;;34.40;34.60;;;;;;5043596;28;20175;-73
2022/04/13 12:43:59;;;;;;;3.30;3.05;;;34.80;34.30;;;;;;5042522;28;20369;-73
2022/04/13 12:46:30;;;;;;;4.68;3.05;;;34.60;35.70;;;;;;5047229;28;20186;-72
2022/04/13 12:48:57;;;;;;;3.28;3.08;;;35.20;34.90;;;;;;5052319;28;20203;-73
2022/04/13 12:51:23;;;;;;;5.45;3.97;;;35.00;34.70;;;;;;5049472;28;20264;-73
2022/04/13 12:53:55;;;;;;;8.65;3.67;;;34.30;34.50;;;;;;5044366;28;20207;-72
2022/04/13 12:56:31;;;;;;;6.30;3.60;;;33.90;35.40;;;;;;5046783;28;20190;-71
2022/04/13 12:58:57;;;;;;;4.60;3.38;;;33.90;34.90;;;;;;5052511;28;20211;-72